createdAt,value
2019-01-13T00:02:01.640Z,33.18
2019-01-13T00:04:32.974Z,35.03
2019-01-13T00:07:04.634Z,32.80
2019-01-13T00:09:36.430Z,35.40
2019-01-13T00:12:08.044Z,35.92
2019-01-13T00:14:39.718Z,32.05
2019-01-13T00:17:12.440Z,31.17
2019-01-13T00:19:43.951Z,32.35
2019-01-13T00:22:15.294Z,30.50
2019-01-13T00:24:46.493Z,31.80
2019-01-13T00:27:17.963Z,27.60
2019-01-13T00:29:49.521Z,30.40
2019-01-13T00:32:20.906Z,32.25
2019-01-13T00:34:52.404Z,29.92
2019-01-13T00:37:24.172Z,28.57
2019-01-13T00:39:55.643Z,32.05
2019-01-13T00:42:27.147Z,26.82
2019-01-13T00:44:58.475Z,26.35
2019-01-13T00:47:30.087Z,26.95
2019-01-13T00:50:01.414Z,26.95
2019-01-13T00:52:33.078Z,28.45
2019-01-13T00:55:05.054Z,27.58
2019-01-13T00:57:36.663Z,27.42
2019-01-13T01:00:11.790Z,34.27
2019-01-13T01:02:45.166Z,29.63
2019-01-13T01:05:17.105Z,32.15
2019-01-13T01:07:50.391Z,36.10
2019-01-13T01:10:22.390Z,32.60
2019-01-13T01:12:53.946Z,28.52
2019-01-13T01:15:25.173Z,26.23
2019-01-13T01:17:56.723Z,26.27
2019-01-13T01:20:29.138Z,24.25
2019-01-13T01:23:01.886Z,25.90
2019-01-13T01:25:33.248Z,22.95
2019-01-13T01:28:05.185Z,26.93
2019-01-13T01:30:36.741Z,25.88
2019-01-13T01:33:08.262Z,22.75
2019-01-13T01:35:39.550Z,21.82
2019-01-13T01:38:11.030Z,25.32
2019-01-13T01:40:42.405Z,30.27
2019-01-13T01:43:13.882Z,27.95
2019-01-13T01:45:45.312Z,24.40
2019-01-13T01:48:16.929Z,25.95
2019-01-13T01:50:48.375Z,21.82
2019-01-13T01:53:20.744Z,27.95
2019-01-13T01:55:52.050Z,28.20
2019-01-13T01:58:23.537Z,22.17
2019-01-13T02:00:55.985Z,24.77
2019-01-13T02:03:27.746Z,26.87
2019-01-13T02:05:59.090Z,31.60
2019-01-13T02:08:30.547Z,26.02
2019-01-13T02:11:01.965Z,19.75
2019-01-13T02:13:33.318Z,24.02
2019-01-13T02:16:04.723Z,25.90
2019-01-13T02:18:37.156Z,27.65
2019-01-13T02:21:08.716Z,28.77
2019-01-13T02:23:40.268Z,25.77
2019-01-13T02:26:11.655Z,26.75
2019-01-13T02:28:43.340Z,28.83
2019-01-13T02:31:14.550Z,29.67
2019-01-13T02:33:46.015Z,28.23
2019-01-13T02:36:17.465Z,22.32
2019-01-13T02:38:49.390Z,16.45
2019-01-13T02:41:20.774Z,19.40
2019-01-13T02:43:52.238Z,15.40
2019-01-13T02:46:23.506Z,17.57
2019-01-13T02:48:55.055Z,17.98
2019-01-13T02:51:26.283Z,17.80
2019-01-13T02:53:58.681Z,21.02
2019-01-13T02:56:29.826Z,18.75
2019-01-13T02:59:01.338Z,16.37
2019-01-13T03:01:32.769Z,18.45
2019-01-13T03:04:04.353Z,17.17
2019-01-13T03:06:35.822Z,18.27
2019-01-13T03:09:09.801Z,21.48
2019-01-13T03:11:41.341Z,18.50
2019-01-13T03:14:12.869Z,18.35
2019-01-13T03:16:44.228Z,18.80
2019-01-13T03:19:15.679Z,17.75
2019-01-13T03:21:47.008Z,16.55
2019-01-13T03:24:18.680Z,17.00
2019-01-13T03:26:49.931Z,17.30
2019-01-13T03:29:22.315Z,17.57
2019-01-13T03:31:53.660Z,18.27
2019-01-13T03:34:25.381Z,19.85
2019-01-13T03:36:56.652Z,19.50
2019-01-13T03:39:28.450Z,22.55
2019-01-13T03:41:59.853Z,20.60
2019-01-13T03:44:31.325Z,22.75
2019-01-13T03:47:02.931Z,30.17
2019-01-13T03:49:35.522Z,26.68
2019-01-13T03:52:06.949Z,24.07
2019-01-13T03:54:38.377Z,36.48
2019-01-13T03:57:09.737Z,35.43
2019-01-13T03:59:41.185Z,26.27
2019-01-13T04:02:12.704Z,35.33
2019-01-13T04:04:44.220Z,32.50
2019-01-13T04:07:15.498Z,41.42
2019-01-13T04:09:48.175Z,19.45
2019-01-13T04:12:19.518Z,20.68
2019-01-13T04:14:51.077Z,18.70
2019-01-13T04:17:22.736Z,17.15
2019-01-13T04:19:55.265Z,23.67
2019-01-13T04:22:26.699Z,21.57
2019-01-13T04:24:58.132Z,26.65
2019-01-13T04:27:29.437Z,27.30
2019-01-13T04:30:01.041Z,23.27
2019-01-13T04:32:32.371Z,21.73
2019-01-13T04:35:03.742Z,27.80
2019-01-13T04:37:35.098Z,32.38
2019-01-13T04:40:07.942Z,31.68
2019-01-13T04:42:39.374Z,28.55
2019-01-13T04:45:12.958Z,34.18
2019-01-13T04:48:03.226Z,29.60
2019-01-13T04:50:35.718Z,27.67
2019-01-13T04:53:07.137Z,25.60
2019-01-13T04:55:39.974Z,22.48
2019-01-13T04:58:11.449Z,35.13
2019-01-13T05:00:42.965Z,32.58
2019-01-13T05:03:14.399Z,30.92
2019-01-13T05:05:45.683Z,27.98
2019-01-13T05:08:16.989Z,21.87
2019-01-13T05:10:48.578Z,25.80
2019-01-13T05:13:19.897Z,35.80
2019-01-13T05:15:51.833Z,34.30
2019-01-13T05:18:23.210Z,26.62
2019-01-13T05:20:55.167Z,24.85
2019-01-13T05:23:26.763Z,25.15
2019-01-13T05:25:58.405Z,29.35
2019-01-13T05:28:29.909Z,24.18
2019-01-13T05:31:01.949Z,27.00
2019-01-13T05:33:33.353Z,22.70
2019-01-13T05:36:05.779Z,27.65
2019-01-13T05:38:37.103Z,23.73
2019-01-13T05:41:08.521Z,27.73
2019-01-13T05:43:40.012Z,26.57
2019-01-13T05:46:11.666Z,30.52
2019-01-13T05:48:43.092Z,38.88
2019-01-13T05:51:14.596Z,47.73
2019-01-13T05:53:45.826Z,54.18
2019-01-13T05:56:17.337Z,60.50
2019-01-13T05:58:48.868Z,45.63
2019-01-13T06:01:20.373Z,27.15
2019-01-13T06:03:51.722Z,25.60
2019-01-13T06:06:24.278Z,38.65
2019-01-13T06:08:55.455Z,36.03
2019-01-13T06:11:27.006Z,30.45
2019-01-13T06:13:58.378Z,28.00
2019-01-13T06:16:30.836Z,22.77
2019-01-13T06:19:02.230Z,21.23
2019-01-13T06:21:33.823Z,25.35
2019-01-13T06:24:05.163Z,24.07
2019-01-13T06:26:36.734Z,24.12
2019-01-13T06:29:08.281Z,40.48
2019-01-13T06:31:40.698Z,36.17
2019-01-13T06:34:11.978Z,34.95
2019-01-13T06:36:43.316Z,43.28
2019-01-13T06:39:14.711Z,46.35
2019-01-13T06:41:46.151Z,67.82
2019-01-13T06:44:17.524Z,43.70
2019-01-13T06:46:49.139Z,44.00
2019-01-13T06:49:20.822Z,26.07
2019-01-13T06:51:52.735Z,24.18
2019-01-13T06:54:25.075Z,20.92
2019-01-13T06:56:58.728Z,18.60
2019-01-13T06:59:30.143Z,16.95
2019-01-13T07:02:03.464Z,16.23
2019-01-13T07:04:35.128Z,19.00
2019-01-13T07:07:06.724Z,18.62
2019-01-13T07:09:38.115Z,16.40
2019-01-13T07:12:09.769Z,15.63
2019-01-13T07:14:41.211Z,19.73
2019-01-13T07:17:14.667Z,21.73
2019-01-13T07:19:46.076Z,24.57
2019-01-13T07:22:17.609Z,19.70
2019-01-13T07:24:49.026Z,18.17
2019-01-13T07:27:20.602Z,20.88
2019-01-13T07:29:51.968Z,20.35
2019-01-13T07:32:23.983Z,18.05
2019-01-13T07:34:55.221Z,21.60
2019-01-13T07:37:27.841Z,17.23
2019-01-13T07:39:59.250Z,20.65
2019-01-13T07:42:31.105Z,18.25
2019-01-13T07:45:02.584Z,19.92
2019-01-13T07:47:34.182Z,17.90
2019-01-13T07:50:06.310Z,18.52
2019-01-13T07:52:38.014Z,16.97
2019-01-13T07:55:10.957Z,17.45
2019-01-13T07:57:44.627Z,15.75
2019-01-13T08:00:25.306Z,17.42
2019-01-13T08:02:56.731Z,17.23
2019-01-13T08:05:28.429Z,19.60
2019-01-13T08:08:00.303Z,14.23
2019-01-13T08:10:31.787Z,32.85
2019-01-13T08:13:04.198Z,75.30
2019-01-13T08:15:35.632Z,99.52
2019-01-13T08:18:08.351Z,51.08
2019-01-13T08:20:39.771Z,53.68
2019-01-13T08:23:11.195Z,50.55
2019-01-13T08:25:42.702Z,56.42
2019-01-13T08:28:14.102Z,45.90
2019-01-13T08:30:45.435Z,45.85
2019-01-13T08:33:16.875Z,44.35
2019-01-13T08:35:48.315Z,44.48
2019-01-13T08:38:19.571Z,48.85
2019-01-13T08:40:51.037Z,38.42
2019-01-13T08:43:22.404Z,57.83
2019-01-13T08:45:53.806Z,45.92
2019-01-13T08:48:25.112Z,79.35
2019-01-13T08:50:56.650Z,96.08
2019-01-13T08:53:27.885Z,82.92
2019-01-13T08:55:59.427Z,80.32
2019-01-13T08:58:31.883Z,80.00
2019-01-13T09:01:03.373Z,84.92
2019-01-13T09:03:34.743Z,75.83
2019-01-13T09:06:06.135Z,57.53
2019-01-13T09:08:37.557Z,70.75
2019-01-13T09:11:09.063Z,62.03
2019-01-13T09:13:41.352Z,77.30
2019-01-13T09:16:12.894Z,70.60
2019-01-13T09:18:44.261Z,60.00
2019-01-13T09:21:15.710Z,59.93
2019-01-13T09:23:47.093Z,49.18
2019-01-13T09:26:18.655Z,47.73
2019-01-13T09:28:50.131Z,38.98
2019-01-13T09:31:21.686Z,48.33
2019-01-13T09:33:54.097Z,47.13
2019-01-13T09:36:25.618Z,39.92
2019-01-13T09:38:58.115Z,41.83
2019-01-13T09:41:29.537Z,31.73
2019-01-13T09:44:00.745Z,37.85
2019-01-13T09:46:33.251Z,39.88
2019-01-13T09:49:05.339Z,35.90
2019-01-13T09:51:36.950Z,28.05
2019-01-13T09:54:08.239Z,29.63
2019-01-13T09:56:39.750Z,28.30
2019-01-13T09:59:11.114Z,36.63
2019-01-13T10:01:42.765Z,30.15
2019-01-13T10:04:14.084Z,52.23
2019-01-13T10:06:45.646Z,38.88
2019-01-13T10:09:16.884Z,34.70
2019-01-13T10:11:48.469Z,39.83
2019-01-13T10:14:19.726Z,39.92
2019-01-13T10:16:51.191Z,38.73
2019-01-13T10:19:22.484Z,34.95
2019-01-13T10:21:53.875Z,44.87
2019-01-13T10:24:25.284Z,36.98
2019-01-13T10:26:56.787Z,34.23
2019-01-13T10:29:28.300Z,36.57
2019-01-13T10:31:59.756Z,28.20
2019-01-13T10:34:32.281Z,43.20
2019-01-13T10:37:03.918Z,37.33
2019-01-13T10:39:35.244Z,30.40
2019-01-13T10:42:06.863Z,39.95
2019-01-13T10:44:50.006Z,36.47
2019-01-13T10:47:21.680Z,51.40
2019-01-13T10:49:53.050Z,37.53
2019-01-13T10:52:24.558Z,47.05
2019-01-13T10:54:55.941Z,49.60
2019-01-13T10:57:27.570Z,45.77
2019-01-13T10:59:59.012Z,48.00
2019-01-13T11:02:30.316Z,43.80
2019-01-13T11:05:01.580Z,31.47
2019-01-13T11:07:33.107Z,39.10
2019-01-13T11:10:05.595Z,34.58
2019-01-13T11:12:37.113Z,33.40
2019-01-13T11:15:09.081Z,38.27
2019-01-13T11:17:59.892Z,50.37
2019-01-13T11:20:37.286Z,43.45
2019-01-13T11:23:09.338Z,41.70
2019-01-13T11:25:40.901Z,46.47
2019-01-13T11:28:12.324Z,51.80
2019-01-13T11:30:44.241Z,46.33
2019-01-13T11:33:15.542Z,51.08
2019-01-13T11:35:47.006Z,67.08
2019-01-13T11:38:18.497Z,65.57
2019-01-13T11:40:49.781Z,70.57
2019-01-13T11:43:21.175Z,64.20
2019-01-13T11:45:53.640Z,62.25
2019-01-13T11:48:25.293Z,62.20
2019-01-13T11:50:56.508Z,59.30
2019-01-13T11:53:28.131Z,55.25
2019-01-13T11:55:59.582Z,58.28
2019-01-13T11:58:31.041Z,50.80
2019-01-13T12:01:02.376Z,61.05
2019-01-13T12:03:46.399Z,61.13
2019-01-13T12:06:18.357Z,54.20
2019-01-13T12:08:49.783Z,66.72
2019-01-13T12:11:21.235Z,101.90
2019-01-13T12:13:52.499Z,87.95
2019-01-13T12:16:24.032Z,63.92
2019-01-13T12:18:55.554Z,57.05
2019-01-13T12:21:26.979Z,62.17
2019-01-13T12:23:58.781Z,62.62
2019-01-13T12:26:30.362Z,61.18
2019-01-13T12:29:01.823Z,58.85
2019-01-13T12:31:33.337Z,60.03
2019-01-13T12:34:04.730Z,63.87
2019-01-13T12:36:36.041Z,66.25
2019-01-13T12:39:12.496Z,62.30
2019-01-13T12:41:44.117Z,63.75
2019-01-13T12:44:15.402Z,68.12
2019-01-13T12:46:47.366Z,73.17
2019-01-13T12:49:19.920Z,70.55
2019-01-13T12:51:51.365Z,70.42
2019-01-13T12:54:22.901Z,86.47
2019-01-13T12:56:54.438Z,79.37
2019-01-13T12:59:27.373Z,84.92
2019-01-13T13:01:58.856Z,83.15
2019-01-13T13:04:31.059Z,75.42
2019-01-13T13:07:02.458Z,75.85
2019-01-13T13:09:34.822Z,64.60
2019-01-13T13:12:07.339Z,62.90
2019-01-13T13:14:38.886Z,56.98
2019-01-13T13:17:10.427Z,66.33
2019-01-13T13:19:42.016Z,58.78
2019-01-13T13:22:13.487Z,52.10
2019-01-13T13:24:45.009Z,46.70
2019-01-13T13:27:16.438Z,55.40
2019-01-13T13:29:47.798Z,71.28
2019-01-13T13:32:19.150Z,62.98
2019-01-13T13:34:50.816Z,48.38
2019-01-13T13:37:22.386Z,70.25
2019-01-13T13:39:53.812Z,105.80
2019-01-13T13:42:26.538Z,49.67
2019-01-13T13:44:57.967Z,44.88
2019-01-13T13:47:29.500Z,47.67
2019-01-13T13:50:01.953Z,45.85
2019-01-13T13:52:33.298Z,42.15
2019-01-13T13:55:07.753Z,44.58
2019-01-13T13:57:39.221Z,42.50
2019-01-13T14:00:23.368Z,46.25
2019-01-13T14:02:54.724Z,60.63
2019-01-13T14:05:26.457Z,48.65
2019-01-13T14:07:58.237Z,44.67
2019-01-13T14:10:43.634Z,42.38
2019-01-13T14:13:15.000Z,72.62
2019-01-13T14:15:46.469Z,75.30
2019-01-13T14:18:17.817Z,66.75
2019-01-13T14:20:49.214Z,62.40
2019-01-13T14:23:20.729Z,47.35
2019-01-13T14:25:52.684Z,50.70
2019-01-13T14:28:24.296Z,58.58
2019-01-13T14:30:55.857Z,58.20
2019-01-13T14:33:27.279Z,98.35
2019-01-13T14:35:58.516Z,103.92
2019-01-13T14:38:30.088Z,81.70
2019-01-13T14:41:01.672Z,78.50
2019-01-13T14:43:33.173Z,75.85
2019-01-13T14:46:04.834Z,83.82
2019-01-13T14:48:36.269Z,88.03
2019-01-13T14:51:08.136Z,86.00
2019-01-13T14:53:39.513Z,92.05
2019-01-13T14:56:11.038Z,117.62
2019-01-13T14:58:43.362Z,90.25
2019-01-13T15:01:14.783Z,66.33
2019-01-13T15:03:46.198Z,66.87
2019-01-13T15:06:17.515Z,80.03
2019-01-13T15:08:48.900Z,73.05
2019-01-13T15:11:20.379Z,89.87
2019-01-13T15:13:51.872Z,72.20
2019-01-13T15:16:23.157Z,63.33
2019-01-13T15:18:54.432Z,57.00
2019-01-13T15:21:26.822Z,63.87
2019-01-13T15:23:58.304Z,71.07
2019-01-13T15:26:30.259Z,74.72
2019-01-13T15:29:01.688Z,78.55
2019-01-13T15:31:33.057Z,87.97
2019-01-13T15:34:07.299Z,97.65
2019-01-13T15:36:37.539Z,103.25
2019-01-13T15:39:10.209Z,95.35
2019-01-13T15:41:41.616Z,89.55
2019-01-13T15:44:13.206Z,101.22
2019-01-13T15:46:44.492Z,98.65
2019-01-13T15:49:15.929Z,115.75
2019-01-13T15:51:47.194Z,136.45
2019-01-13T15:54:19.192Z,151.87
2019-01-13T15:56:50.768Z,133.52
2019-01-13T15:59:22.208Z,126.85
2019-01-13T16:01:53.458Z,110.08
2019-01-13T16:04:25.146Z,111.12
2019-01-13T16:06:56.593Z,108.05
2019-01-13T16:09:28.170Z,134.07
2019-01-13T16:11:59.682Z,112.00
2019-01-13T16:14:31.133Z,116.35
2019-01-13T16:17:03.073Z,102.85
2019-01-13T16:19:34.345Z,107.60
2019-01-13T16:22:06.539Z,110.57
2019-01-13T16:24:38.768Z,149.10
2019-01-13T16:27:10.195Z,128.47
2019-01-13T16:29:41.819Z,74.15
2019-01-13T16:32:13.461Z,74.60
2019-01-13T16:34:56.350Z,89.75
2019-01-13T16:37:27.817Z,142.47
2019-01-13T16:40:00.722Z,154.45
2019-01-13T16:42:32.111Z,157.85
2019-01-13T16:45:03.967Z,155.43
2019-01-13T16:47:35.452Z,137.50
2019-01-13T16:50:14.502Z,115.32
2019-01-13T16:52:48.250Z,122.62
2019-01-13T16:55:19.908Z,107.85
2019-01-13T16:57:51.644Z,119.40
2019-01-13T17:00:24.826Z,110.50
2019-01-13T17:02:56.410Z,113.20
2019-01-13T17:05:29.707Z,106.67
2019-01-13T17:08:01.129Z,95.12
2019-01-13T17:10:33.153Z,86.50
2019-01-13T17:13:16.012Z,93.65
2019-01-13T17:15:47.529Z,83.67
2019-01-13T17:18:18.988Z,95.35
2019-01-13T17:20:50.938Z,91.12
2019-01-13T17:23:23.784Z,71.07
2019-01-13T17:25:55.429Z,88.03
2019-01-13T17:28:27.766Z,90.25
2019-01-13T17:30:59.309Z,83.22
2019-01-13T17:33:31.060Z,80.77
2019-01-13T17:36:02.674Z,76.60
2019-01-13T17:38:34.767Z,79.77
2019-01-13T17:41:06.494Z,80.72
2019-01-13T17:43:39.411Z,73.55
2019-01-13T17:46:11.310Z,79.22
2019-01-13T17:48:42.744Z,89.37
2019-01-13T17:51:15.274Z,97.82
2019-01-13T17:53:47.102Z,99.20
2019-01-13T17:56:30.662Z,91.00
2019-01-13T17:59:02.199Z,102.35
2019-01-13T18:01:43.238Z,92.50
2019-01-13T18:04:26.253Z,89.60
2019-01-13T18:06:58.093Z,86.87
2019-01-13T18:09:29.619Z,104.90
2019-01-13T18:12:01.112Z,142.55
2019-01-13T18:14:32.765Z,142.40
2019-01-13T18:17:06.518Z,162.18
2019-01-13T18:19:37.214Z,132.93
2019-01-13T18:22:08.750Z,106.70
2019-01-13T18:24:41.092Z,108.32
2019-01-13T18:27:12.805Z,133.20
2019-01-13T18:29:44.221Z,168.62
2019-01-13T18:32:15.825Z,141.68
2019-01-13T18:34:50.356Z,125.15
2019-01-13T18:37:20.500Z,109.03
2019-01-13T18:39:51.798Z,90.77
2019-01-13T18:42:23.434Z,88.47
2019-01-13T18:44:54.647Z,88.55
2019-01-13T18:47:26.434Z,75.17
2019-01-13T18:49:58.049Z,69.17
2019-01-13T18:52:30.117Z,69.15
2019-01-13T18:55:01.833Z,61.77
2019-01-13T18:57:33.513Z,71.25
2019-01-13T19:00:08.961Z,67.00
2019-01-13T19:02:40.535Z,84.67
2019-01-13T19:05:13.192Z,108.92
2019-01-13T19:07:45.025Z,108.67
2019-01-13T19:11:06.471Z,108.47
2019-01-13T19:14:14.501Z,124.62
2019-01-13T19:17:09.310Z,124.35
2019-01-13T19:19:57.941Z,148.43
2019-01-13T19:22:31.684Z,134.25
2019-01-13T19:25:20.566Z,110.75
2019-01-13T19:27:51.854Z,137.68
2019-01-13T19:30:24.261Z,145.12
2019-01-13T19:32:55.598Z,115.12
2019-01-13T19:35:27.356Z,95.42
2019-01-13T19:37:58.984Z,88.58
2019-01-13T19:40:30.471Z,82.88
2019-01-13T19:43:01.877Z,88.87
2019-01-13T19:45:33.505Z,87.27
2019-01-13T19:48:05.227Z,93.45
2019-01-13T19:50:37.633Z,92.53
2019-01-13T19:53:09.054Z,78.55
2019-01-13T19:55:40.651Z,81.02
2019-01-13T19:58:11.947Z,80.22
2019-01-13T20:00:43.319Z,80.38
2019-01-13T20:03:14.838Z,91.70
2019-01-13T20:05:46.351Z,95.05
2019-01-13T20:08:17.870Z,70.12
2019-01-13T20:10:49.334Z,69.70
2019-01-13T20:13:21.771Z,69.47
2019-01-13T20:15:53.398Z,70.45
2019-01-13T20:18:24.689Z,75.30
2019-01-13T20:20:56.247Z,73.33
2019-01-13T20:23:27.793Z,72.10
2019-01-13T20:25:59.162Z,66.42
2019-01-13T20:28:30.793Z,68.97
2019-01-13T20:31:02.471Z,66.97
2019-01-13T20:33:33.958Z,70.30
2019-01-13T20:36:05.589Z,70.17
2019-01-13T20:38:37.122Z,72.65
2019-01-13T20:41:09.178Z,66.65
2019-01-13T20:43:40.536Z,79.60
2019-01-13T20:46:11.972Z,80.70
2019-01-13T20:48:43.518Z,76.20
2019-01-13T20:51:14.988Z,81.00
2019-01-13T20:53:46.475Z,84.83
2019-01-13T20:56:17.899Z,79.95
2019-01-13T20:58:49.514Z,70.90
2019-01-13T21:01:21.951Z,69.85
2019-01-13T21:03:53.900Z,77.45
2019-01-13T21:06:25.443Z,70.57
2019-01-13T21:08:57.041Z,65.67
2019-01-13T21:11:29.585Z,66.67
2019-01-13T21:14:02.035Z,62.83
2019-01-13T21:16:33.684Z,64.10
2019-01-13T21:19:05.179Z,66.87
2019-01-13T21:21:36.665Z,70.83
2019-01-13T21:24:08.069Z,54.85
2019-01-13T21:26:41.379Z,63.80
2019-01-13T21:29:12.936Z,72.45
2019-01-13T21:31:44.608Z,58.98
2019-01-13T21:34:16.999Z,53.65
2019-01-13T21:36:48.633Z,61.60
2019-01-13T21:39:31.835Z,51.83
2019-01-13T21:42:03.183Z,54.98
2019-01-13T21:44:34.773Z,50.17
2019-01-13T21:47:06.487Z,53.73
2019-01-13T21:49:38.037Z,47.78
2019-01-13T21:52:09.592Z,50.60
2019-01-13T21:54:41.032Z,48.00
2019-01-13T21:57:12.641Z,52.27
2019-01-13T21:59:44.144Z,56.63
2019-01-13T22:02:15.836Z,66.33
2019-01-13T22:04:47.421Z,61.42
2019-01-13T22:07:18.896Z,62.90
2019-01-13T22:09:50.189Z,67.55
2019-01-13T22:12:21.792Z,60.65
2019-01-13T22:14:54.488Z,69.12
2019-01-13T22:17:26.083Z,67.20
2019-01-13T22:19:57.470Z,65.28
2019-01-13T22:22:29.095Z,64.15
2019-01-13T22:25:00.726Z,61.28
2019-01-13T22:27:33.174Z,62.20
2019-01-13T22:30:04.836Z,62.98
2019-01-13T22:32:36.323Z,60.15
2019-01-13T22:35:08.787Z,62.88
2019-01-13T22:37:40.315Z,56.28
2019-01-13T22:40:14.059Z,60.85
2019-01-13T22:42:45.959Z,61.13
2019-01-13T22:45:21.069Z,57.08
2019-01-13T22:47:52.709Z,59.23
2019-01-13T22:50:24.298Z,61.70
2019-01-13T22:52:55.724Z,63.85
2019-01-13T22:55:27.205Z,58.55
2019-01-13T22:57:58.616Z,61.48
2019-01-13T23:00:57.495Z,63.05
2019-01-13T23:03:29.048Z,56.13
2019-01-13T23:06:19.333Z,55.28
2019-01-13T23:08:50.756Z,59.98
2019-01-13T23:11:33.670Z,61.85
2019-01-13T23:14:06.746Z,59.30
2019-01-13T23:16:38.490Z,61.98
2019-01-13T23:19:10.300Z,51.98
2019-01-13T23:21:41.906Z,64.10
2019-01-13T23:24:14.378Z,60.80
2019-01-13T23:26:45.808Z,56.28
2019-01-13T23:29:17.297Z,58.35
2019-01-13T23:31:48.932Z,56.25
2019-01-13T23:34:20.387Z,57.45
2019-01-13T23:36:51.893Z,63.60
2019-01-13T23:39:23.455Z,59.30
2019-01-13T23:41:55.210Z,59.27
2019-01-13T23:44:26.845Z,56.98
2019-01-13T23:46:59.568Z,53.55
2019-01-13T23:49:31.095Z,50.92
2019-01-13T23:52:02.706Z,53.15
2019-01-13T23:54:35.226Z,50.90
2019-01-13T23:57:08.762Z,54.75
2019-01-13T23:59:40.872Z,57.25
